createdAt,value
2023-03-11T00:00:33.301Z,22.80
2023-03-11T00:03:03.384Z,21.77
2023-03-11T00:05:34.669Z,25.07
2023-03-11T00:08:04.593Z,24.70
2023-03-11T00:10:35.297Z,23.73
2023-03-11T00:13:05.742Z,27.07
2023-03-11T00:15:34.631Z,24.43
2023-03-11T00:18:03.295Z,29.67
2023-03-11T00:20:34.278Z,23.27
2023-03-11T00:23:03.256Z,27.60
2023-03-11T00:25:33.306Z,26.80
2023-03-11T00:28:02.169Z,25.30
2023-03-11T00:30:32.054Z,23.90
2023-03-11T00:33:00.754Z,28.03
2023-03-11T00:35:31.067Z,25.97
2023-03-11T00:38:01.162Z,24.23
2023-03-11T00:40:31.745Z,24.83
2023-03-11T00:43:00.517Z,23.33
2023-03-11T00:45:31.897Z,22.00
2023-03-11T00:48:00.208Z,24.43
2023-03-11T00:50:31.297Z,24.37
2023-03-11T00:53:00.311Z,22.63
2023-03-11T00:55:30.735Z,23.70
2023-03-11T00:58:00.889Z,27.27
2023-03-11T01:00:31.910Z,22.77
2023-03-11T01:03:01.671Z,23.27
2023-03-11T01:05:32.086Z,25.07
2023-03-11T01:08:01.436Z,32.97
2023-03-11T01:10:31.147Z,29.37
2023-03-11T01:12:59.823Z,30.27
2023-03-11T01:15:32.418Z,27.40
2023-03-11T01:18:00.979Z,27.87
2023-03-11T01:20:29.875Z,24.93
2023-03-11T01:22:58.293Z,26.57
2023-03-11T01:25:26.988Z,30.77
2023-03-11T01:27:55.330Z,30.10
2023-03-11T01:30:25.237Z,27.60
2023-03-11T01:32:56.040Z,29.83
2023-03-11T01:35:27.118Z,25.70
2023-03-11T01:37:55.810Z,31.67
2023-03-11T01:40:29.984Z,29.17
2023-03-11T01:42:58.399Z,25.23
2023-03-11T01:45:42.577Z,26.23
2023-03-11T01:48:12.592Z,30.20
2023-03-11T01:50:44.966Z,30.77
2023-03-11T01:53:14.587Z,27.97
2023-03-11T01:55:43.285Z,32.23
2023-03-11T01:58:17.261Z,29.20
2023-03-11T02:00:45.864Z,27.33
2023-03-11T02:03:20.542Z,25.37
2023-03-11T02:05:50.516Z,28.03
2023-03-11T02:08:18.774Z,21.57
2023-03-11T02:10:48.061Z,24.27
2023-03-11T02:13:17.404Z,25.73
2023-03-11T02:15:46.415Z,29.83
2023-03-11T02:18:18.618Z,26.63
2023-03-11T02:20:52.093Z,24.73
2023-03-11T02:23:25.119Z,26.47
2023-03-11T02:26:01.435Z,26.90
2023-03-11T02:28:33.478Z,29.43
2023-03-11T02:31:01.914Z,26.80
2023-03-11T02:33:33.448Z,27.00
2023-03-11T02:36:01.931Z,27.27
2023-03-11T02:38:30.342Z,27.07
2023-03-11T02:40:59.658Z,26.70
2023-03-11T02:43:36.964Z,29.00
2023-03-11T02:46:10.005Z,27.87
2023-03-11T02:48:39.088Z,26.73
2023-03-11T02:51:07.519Z,26.00
2023-03-11T02:53:41.762Z,25.57
2023-03-11T02:56:10.049Z,27.30
2023-03-11T02:58:39.725Z,25.17
2023-03-11T03:01:08.015Z,25.23
2023-03-11T03:03:36.325Z,28.77
2023-03-11T03:06:04.824Z,24.50
2023-03-11T03:08:33.173Z,27.50
2023-03-11T03:11:01.518Z,26.67
2023-03-11T03:13:30.908Z,25.93
2023-03-11T03:16:01.502Z,26.53
2023-03-11T03:18:29.765Z,25.47
2023-03-11T03:20:58.150Z,26.87
2023-03-11T03:23:26.397Z,25.67
2023-03-11T03:25:54.654Z,27.10
2023-03-11T03:28:22.864Z,26.53
2023-03-11T03:30:51.075Z,27.60
2023-03-11T03:33:20.805Z,23.63
2023-03-11T03:35:49.203Z,22.60
2023-03-11T03:38:17.526Z,26.83
2023-03-11T03:40:47.928Z,25.77
2023-03-11T03:43:16.738Z,27.57
2023-03-11T03:45:45.159Z,22.63
2023-03-11T03:48:14.357Z,22.07
2023-03-11T03:50:44.062Z,23.70
2023-03-11T03:53:12.348Z,25.43
2023-03-11T03:55:40.610Z,24.43
2023-03-11T03:58:08.929Z,25.40
2023-03-11T04:00:37.382Z,26.97
2023-03-11T04:03:05.746Z,26.93
2023-03-11T04:05:34.269Z,25.60
2023-03-11T04:08:04.058Z,24.50
2023-03-11T04:10:32.449Z,23.20
2023-03-11T04:13:00.719Z,26.63
2023-03-11T04:15:28.980Z,25.03
2023-03-11T04:17:57.304Z,22.73
2023-03-11T04:20:25.702Z,26.53
2023-03-11T04:22:54.021Z,26.73
2023-03-11T04:25:23.747Z,24.53
2023-03-11T04:27:52.430Z,24.67
2023-03-11T04:30:21.157Z,27.67
2023-03-11T04:32:49.493Z,22.97
2023-03-11T04:35:18.226Z,26.10
2023-03-11T04:37:46.537Z,22.47
2023-03-11T04:40:15.447Z,22.90
2023-03-11T04:42:45.180Z,25.13
2023-03-11T04:45:14.216Z,26.80
2023-03-11T04:47:42.797Z,22.57
2023-03-11T04:50:11.872Z,26.33
2023-03-11T04:52:40.442Z,27.07
2023-03-11T04:55:09.857Z,25.27
2023-03-11T04:57:38.504Z,26.20
2023-03-11T05:00:11.749Z,22.40
2023-03-11T05:02:41.014Z,23.40
2023-03-11T05:05:11.288Z,24.03
2023-03-11T05:07:39.826Z,26.53
2023-03-11T05:10:09.305Z,25.27
2023-03-11T05:12:37.630Z,22.17
2023-03-11T05:15:06.737Z,24.03
2023-03-11T05:17:36.457Z,25.50
2023-03-11T05:20:07.613Z,21.13
2023-03-11T05:22:36.553Z,21.77
2023-03-11T05:25:05.235Z,23.07
2023-03-11T05:27:33.740Z,25.63
2023-03-11T05:30:02.051Z,22.97
2023-03-11T05:32:30.899Z,24.40
2023-03-11T05:35:01.225Z,20.80
2023-03-11T05:37:31.977Z,22.27
2023-03-11T05:40:00.255Z,25.30
2023-03-11T05:42:28.589Z,19.30
2023-03-11T05:44:57.033Z,25.63
2023-03-11T05:47:25.325Z,22.10
2023-03-11T05:49:53.655Z,20.07
2023-03-11T05:52:23.279Z,22.43
2023-03-11T05:54:52.499Z,21.47
2023-03-11T05:57:20.816Z,25.50
2023-03-11T05:59:49.150Z,23.97
2023-03-11T06:02:17.476Z,23.33
2023-03-11T06:04:45.880Z,25.40
2023-03-11T06:07:15.466Z,18.53
2023-03-11T06:09:45.118Z,21.87
2023-03-11T06:12:13.446Z,23.33
2023-03-11T06:14:41.704Z,21.87
2023-03-11T06:17:10.058Z,22.47
2023-03-11T06:19:38.402Z,22.47
2023-03-11T06:22:06.846Z,22.07
2023-03-11T06:24:35.219Z,21.97
2023-03-11T06:27:04.938Z,23.03
2023-03-11T06:29:33.251Z,26.93
2023-03-11T06:32:01.527Z,20.97
2023-03-11T06:34:29.808Z,26.43
2023-03-11T06:36:59.583Z,23.63
2023-03-11T06:39:27.861Z,27.07
2023-03-11T06:41:56.201Z,26.40
2023-03-11T06:44:25.893Z,27.10
2023-03-11T06:46:54.181Z,24.30
2023-03-11T06:49:22.468Z,28.33
2023-03-11T06:51:50.705Z,23.27
2023-03-11T06:54:18.956Z,24.00
2023-03-11T06:56:47.200Z,21.80
2023-03-11T06:59:16.215Z,24.57
2023-03-11T07:01:45.905Z,26.13
2023-03-11T07:04:14.171Z,24.93
2023-03-11T07:06:43.684Z,22.23
2023-03-11T07:09:11.922Z,26.90
2023-03-11T07:11:40.481Z,21.97
2023-03-11T07:14:08.731Z,25.00
2023-03-11T07:16:39.782Z,29.03
2023-03-11T07:19:10.458Z,25.23
2023-03-11T07:21:39.455Z,33.13
2023-03-11T07:24:08.252Z,29.97
2023-03-11T07:26:37.652Z,33.67
2023-03-11T07:29:06.064Z,41.13
2023-03-11T07:31:35.857Z,48.67
2023-03-11T07:34:06.082Z,40.90
2023-03-11T07:36:35.702Z,45.57
2023-03-11T07:39:06.929Z,45.03
2023-03-11T07:41:37.157Z,36.60
2023-03-11T07:44:08.048Z,40.13
2023-03-11T07:46:37.704Z,36.43
2023-03-11T07:49:05.994Z,36.67
2023-03-11T07:51:37.427Z,37.97
2023-03-11T07:54:06.616Z,40.97
2023-03-11T07:56:36.530Z,39.13
2023-03-11T07:59:06.034Z,35.67
2023-03-11T08:01:38.491Z,35.43
2023-03-11T08:04:08.729Z,37.87
2023-03-11T08:06:39.069Z,32.43
2023-03-11T08:09:09.063Z,30.17
2023-03-11T08:11:37.991Z,33.87
2023-03-11T08:14:06.992Z,28.93
2023-03-11T08:16:35.269Z,27.63
2023-03-11T08:19:03.695Z,26.00
2023-03-11T08:21:32.580Z,26.73
2023-03-11T08:24:06.604Z,23.17
2023-03-11T08:26:35.236Z,25.40
2023-03-11T08:29:03.629Z,23.77
2023-03-11T08:31:34.099Z,22.47
2023-03-11T08:34:05.177Z,21.90
2023-03-11T08:36:34.554Z,27.00
2023-03-11T08:39:08.964Z,20.73
2023-03-11T08:41:37.524Z,22.10
2023-03-11T08:44:06.291Z,23.10
2023-03-11T08:46:37.074Z,25.63
2023-03-11T08:49:06.760Z,24.47
2023-03-11T08:51:36.595Z,29.90
2023-03-11T08:54:06.478Z,28.17
2023-03-11T08:56:34.903Z,24.03
2023-03-11T08:59:03.993Z,29.17
2023-03-11T09:01:32.650Z,28.43
2023-03-11T09:04:01.125Z,29.13
2023-03-11T09:06:30.652Z,22.60
2023-03-11T09:08:59.050Z,24.93
2023-03-11T09:11:28.757Z,27.00
2023-03-11T09:13:57.033Z,23.47
2023-03-11T09:16:26.083Z,28.33
2023-03-11T09:18:54.586Z,32.67
2023-03-11T09:21:23.328Z,34.37
2023-03-11T09:23:51.613Z,26.87
2023-03-11T09:26:19.933Z,30.67
2023-03-11T09:28:50.022Z,29.30
2023-03-11T09:31:18.941Z,33.07
2023-03-11T09:33:47.649Z,35.10
2023-03-11T09:36:18.356Z,33.67
2023-03-11T09:38:47.899Z,26.87
2023-03-11T09:41:28.481Z,34.03
2023-03-11T09:44:12.571Z,27.00
2023-03-11T09:47:01.234Z,29.47
2023-03-11T09:49:40.678Z,29.70
2023-03-11T09:52:12.203Z,29.50
2023-03-11T09:54:43.714Z,28.73
2023-03-11T09:57:17.948Z,26.33
2023-03-11T09:59:49.010Z,23.07
2023-03-11T10:02:19.982Z,21.13
2023-03-11T10:04:55.680Z,22.90
2023-03-11T10:07:29.908Z,34.90
2023-03-11T10:09:59.925Z,25.52
2023-03-11T10:12:45.861Z,20.55
2023-03-11T10:15:24.894Z,16.38
2023-03-11T10:18:24.985Z,20.27
2023-03-11T10:21:00.729Z,23.70
2023-03-11T10:23:44.451Z,24.75
2023-03-11T10:26:19.745Z,17.27
2023-03-11T10:28:52.943Z,18.42
2023-03-11T10:31:28.177Z,16.98
2023-03-11T10:34:01.528Z,18.33
2023-03-11T10:36:36.895Z,23.77
2023-03-11T10:39:07.598Z,16.40
2023-03-11T10:41:44.623Z,17.98
2023-03-11T10:44:18.526Z,17.38
2023-03-11T10:46:48.229Z,13.13
2023-03-11T10:49:18.071Z,14.82
2023-03-11T10:51:48.468Z,14.43
2023-03-11T10:54:25.121Z,16.15
2023-03-11T10:56:57.905Z,12.20
2023-03-11T10:59:29.242Z,14.20
2023-03-11T11:02:01.276Z,12.25
2023-03-11T11:04:37.042Z,16.45
2023-03-11T11:07:30.560Z,12.68
2023-03-11T11:10:19.794Z,15.20
2023-03-11T11:12:59.523Z,13.00
2023-03-11T11:15:29.919Z,13.90
2023-03-11T11:18:01.855Z,17.67
2023-03-11T11:20:31.741Z,17.85
2023-03-11T11:23:01.932Z,18.85
2023-03-11T11:25:33.735Z,15.52
2023-03-11T11:28:05.283Z,13.05
2023-03-11T11:30:33.732Z,14.57
2023-03-11T11:35:57.336Z,12.15
2023-03-11T11:38:28.196Z,11.25
2023-03-11T11:40:59.178Z,12.05
2023-03-11T11:43:37.394Z,15.57
2023-03-11T11:46:12.079Z,14.98
2023-03-11T11:48:49.432Z,12.13
2023-03-11T11:51:22.736Z,9.90
2023-03-11T11:53:57.765Z,13.57
2023-03-11T11:56:26.620Z,12.95
2023-03-11T11:58:55.509Z,13.00
2023-03-11T12:01:38.693Z,10.50
2023-03-11T12:04:37.968Z,12.60
2023-03-11T12:07:22.483Z,9.27
2023-03-11T12:10:12.907Z,15.75
2023-03-11T12:12:47.805Z,17.08
2023-03-11T12:15:19.998Z,16.08
2023-03-11T12:17:51.766Z,13.88
2023-03-11T12:20:28.955Z,13.60
2023-03-11T12:23:13.345Z,10.20
2023-03-11T12:25:49.850Z,12.68
2023-03-11T12:28:25.184Z,13.25
2023-03-11T12:30:57.574Z,19.88
2023-03-11T12:33:31.629Z,16.38
2023-03-11T12:36:01.233Z,13.32
2023-03-11T12:38:34.106Z,12.00
2023-03-11T12:41:06.650Z,12.38
2023-03-11T12:44:00.545Z,12.85
2023-03-11T12:47:11.578Z,45.53
2023-03-11T12:49:41.134Z,15.27
2023-03-11T12:52:26.580Z,10.95
2023-03-11T12:55:31.963Z,11.65
2023-03-11T12:58:36.084Z,10.07
2023-03-11T13:01:18.577Z,14.98
2023-03-11T13:04:16.061Z,13.77
2023-03-11T13:07:17.040Z,13.65
2023-03-11T13:09:45.523Z,12.00
2023-03-11T13:12:44.605Z,10.73
2023-03-11T13:15:34.916Z,10.77
2023-03-11T13:18:06.804Z,12.07
2023-03-11T13:20:48.436Z,11.00
2023-03-11T13:23:26.986Z,9.90
2023-03-11T13:26:31.447Z,10.65
2023-03-11T13:29:41.763Z,14.32
2023-03-11T13:32:46.976Z,11.52
2023-03-11T13:35:30.042Z,9.82
2023-03-11T13:38:18.990Z,13.70
2023-03-11T13:40:47.971Z,13.73
2023-03-11T13:43:19.048Z,14.05
2023-03-11T13:45:54.823Z,11.15
2023-03-11T13:48:29.596Z,15.63
2023-03-11T13:51:02.710Z,15.32
2023-03-11T13:53:35.611Z,9.75
2023-03-11T13:56:04.007Z,16.08
2023-03-11T13:58:32.448Z,14.82
2023-03-11T14:01:03.969Z,12.57
2023-03-11T14:03:38.148Z,12.40
2023-03-11T14:06:09.604Z,15.10
2023-03-11T14:08:39.920Z,17.73
2023-03-11T14:11:18.013Z,13.35
2023-03-11T14:13:49.929Z,10.32
2023-03-11T14:16:24.018Z,13.30
2023-03-11T14:19:04.810Z,12.70
2023-03-11T14:21:37.078Z,13.15
2023-03-11T14:24:05.893Z,13.13
2023-03-11T14:26:36.773Z,13.30
2023-03-11T14:29:10.800Z,10.43
2023-03-11T14:31:44.255Z,10.10
2023-03-11T14:34:18.454Z,13.45
2023-03-11T14:36:51.461Z,8.57
2023-03-11T14:39:32.199Z,8.73
2023-03-11T14:42:07.166Z,13.65
2023-03-11T14:44:38.819Z,14.45
2023-03-11T14:47:15.292Z,19.15
2023-03-11T14:49:44.908Z,16.02
2023-03-11T14:52:20.411Z,16.65
2023-03-11T14:54:51.011Z,16.13
2023-03-11T14:57:24.717Z,14.80
2023-03-11T14:59:54.650Z,18.10
2023-03-11T15:02:39.413Z,16.77
2023-03-11T15:05:16.052Z,19.20
2023-03-11T15:07:45.962Z,14.52
2023-03-11T15:10:15.318Z,13.23
2023-03-11T15:12:45.606Z,14.43
2023-03-11T15:15:28.594Z,15.80
2023-03-11T15:18:00.211Z,17.50
2023-03-11T15:20:31.608Z,16.90
2023-03-11T15:23:01.941Z,14.75
2023-03-11T15:25:33.319Z,15.25
2023-03-11T15:28:15.244Z,13.65
2023-03-11T15:30:43.648Z,12.27
2023-03-11T15:33:24.436Z,12.57
2023-03-11T15:35:52.778Z,23.92
2023-03-11T15:38:23.704Z,18.48
2023-03-11T15:40:54.850Z,16.08
2023-03-11T15:43:29.216Z,18.20
2023-03-11T15:45:59.925Z,14.45
2023-03-11T15:48:31.417Z,16.80
2023-03-11T15:51:01.561Z,16.52
2023-03-11T15:53:31.558Z,13.60
2023-03-11T15:56:07.738Z,10.02
2023-03-11T15:58:38.258Z,14.13
2023-03-11T16:01:07.493Z,15.32
2023-03-11T16:03:39.177Z,20.00
2023-03-11T16:06:07.848Z,13.45
2023-03-11T16:08:36.270Z,16.17
2023-03-11T16:11:04.497Z,14.32
2023-03-11T16:13:32.796Z,13.73
2023-03-11T16:16:02.846Z,13.18
2023-03-11T16:18:33.927Z,14.02
2023-03-11T16:21:10.125Z,17.83
2023-03-11T16:23:51.188Z,23.27
2023-03-11T16:26:22.149Z,22.55
2023-03-11T16:28:50.422Z,26.02
2023-03-11T16:31:18.714Z,15.35
2023-03-11T16:33:46.968Z,16.05
2023-03-11T16:36:16.675Z,22.15
2023-03-11T16:38:47.654Z,15.75
2023-03-11T16:41:17.277Z,20.63
2023-03-11T16:43:46.314Z,18.35
2023-03-11T16:46:14.718Z,17.25
2023-03-11T16:48:43.134Z,16.65
2023-03-11T16:51:11.493Z,16.23
2023-03-11T16:53:41.233Z,14.82
2023-03-11T16:56:09.581Z,16.15
2023-03-11T16:58:37.917Z,14.57
2023-03-11T17:01:06.370Z,14.38
2023-03-11T17:03:42.478Z,13.40
2023-03-11T17:06:11.247Z,12.48
2023-03-11T17:08:41.039Z,14.02
2023-03-11T17:11:16.202Z,13.73
2023-03-11T17:13:44.594Z,12.30
2023-03-11T17:16:12.961Z,15.30
2023-03-11T17:18:41.394Z,14.02
2023-03-11T17:21:10.702Z,12.75
2023-03-11T17:23:40.471Z,14.00
2023-03-11T17:26:09.808Z,12.50
2023-03-11T17:28:40.170Z,17.25
2023-03-11T17:31:11.827Z,17.58
2023-03-11T17:33:40.161Z,19.63
2023-03-11T17:36:10.418Z,20.40
2023-03-11T17:38:40.182Z,15.73
2023-03-11T17:41:09.773Z,18.60
2023-03-11T17:43:38.301Z,15.35
2023-03-11T17:46:09.016Z,16.08
2023-03-11T17:48:37.345Z,15.13
2023-03-11T17:51:10.295Z,13.55
2023-03-11T17:53:40.795Z,20.77
2023-03-11T17:56:10.147Z,17.67
2023-03-11T17:58:38.596Z,22.67
2023-03-11T18:01:08.506Z,32.72
2023-03-11T18:03:36.979Z,31.23
2023-03-11T18:06:07.381Z,30.63
2023-03-11T18:08:37.115Z,47.17
2023-03-11T18:11:09.502Z,50.55
2023-03-11T18:13:38.634Z,41.60
2023-03-11T18:16:09.163Z,46.03
2023-03-11T18:18:38.554Z,36.55
2023-03-11T18:21:09.017Z,29.27
2023-03-11T18:23:37.600Z,29.30
2023-03-11T18:26:09.240Z,26.65
2023-03-11T18:28:37.556Z,28.15
2023-03-11T18:31:10.244Z,27.88
2023-03-11T18:33:39.891Z,25.95
2023-03-11T18:36:16.470Z,27.25
2023-03-11T18:38:46.209Z,31.25
2023-03-11T18:41:20.529Z,36.10
2023-03-11T18:43:53.679Z,38.13
2023-03-11T18:46:22.417Z,29.48
2023-03-11T18:48:51.218Z,26.80
2023-03-11T18:51:20.326Z,29.27
2023-03-11T18:53:48.825Z,27.75
2023-03-11T18:56:19.979Z,22.40
2023-03-11T18:58:48.240Z,22.65
2023-03-11T19:01:17.932Z,24.08
2023-03-11T19:03:51.101Z,21.65
2023-03-11T19:06:19.853Z,22.13
2023-03-11T19:08:48.424Z,24.95
2023-03-11T19:11:20.514Z,26.85
2023-03-11T19:13:48.979Z,21.90
2023-03-11T19:16:19.706Z,22.98
2023-03-11T19:18:48.770Z,24.80
2023-03-11T19:21:18.110Z,26.48
2023-03-11T19:23:46.889Z,24.58
2023-03-11T19:26:15.249Z,23.45
2023-03-11T19:28:45.748Z,28.85
2023-03-11T19:31:14.055Z,34.58
2023-03-11T19:33:43.313Z,30.63
2023-03-11T19:36:12.526Z,31.45
2023-03-11T19:38:40.735Z,31.23
2023-03-11T19:41:10.597Z,33.67
2023-03-11T19:43:39.082Z,31.75
2023-03-11T19:46:11.594Z,27.60
2023-03-11T19:48:40.089Z,26.73
2023-03-11T19:51:08.409Z,26.13
2023-03-11T19:53:37.999Z,23.52
2023-03-11T19:56:06.849Z,24.77
2023-03-11T19:58:35.777Z,21.00
2023-03-11T20:01:04.365Z,22.52
2023-03-11T20:03:34.068Z,24.85
2023-03-11T20:06:06.917Z,22.80
2023-03-11T20:08:37.413Z,24.77
2023-03-11T20:11:06.689Z,26.08
2023-03-11T20:13:36.655Z,21.05
2023-03-11T20:16:07.168Z,26.35
2023-03-11T20:18:37.035Z,24.75
2023-03-11T20:21:09.656Z,27.00
2023-03-11T20:23:38.570Z,21.17
2023-03-11T20:26:08.180Z,22.63
2023-03-11T20:28:36.736Z,23.45
2023-03-11T20:31:16.760Z,21.52
2023-03-11T20:33:47.373Z,25.83
2023-03-11T20:36:17.592Z,24.70
2023-03-11T20:38:46.129Z,26.50
2023-03-11T20:41:14.647Z,21.17
2023-03-11T20:43:43.343Z,29.33
2023-03-11T20:46:12.665Z,22.33
2023-03-11T20:48:41.535Z,22.48
2023-03-11T20:51:13.435Z,21.90
2023-03-11T20:53:41.902Z,26.48
2023-03-11T20:56:12.413Z,22.08
2023-03-11T20:58:40.834Z,22.02
2023-03-11T21:01:14.361Z,19.27
2023-03-11T21:03:43.103Z,21.02
2023-03-11T21:06:18.100Z,23.55
2023-03-11T21:08:46.811Z,22.45
2023-03-11T21:11:15.380Z,20.55
2023-03-11T21:13:44.009Z,20.45
2023-03-11T21:16:12.837Z,19.83
2023-03-11T21:18:42.745Z,21.45
2023-03-11T21:21:11.826Z,21.95
2023-03-11T21:23:43.995Z,21.00
2023-03-11T21:26:14.880Z,21.05
2023-03-11T21:28:46.967Z,21.67
2023-03-11T21:31:18.775Z,23.08
2023-03-11T21:33:48.479Z,24.05
2023-03-11T21:36:18.042Z,23.33
2023-03-11T21:38:48.451Z,26.63
2023-03-11T21:41:19.102Z,24.88
2023-03-11T21:43:48.797Z,27.67
2023-03-11T21:46:19.010Z,23.75
2023-03-11T21:48:48.065Z,27.40
2023-03-11T21:51:18.198Z,26.48
2023-03-11T21:53:48.985Z,25.52
2023-03-11T21:56:17.765Z,27.35
2023-03-11T21:58:46.378Z,31.65
2023-03-11T22:01:14.977Z,27.85
2023-03-11T22:03:44.011Z,31.10
2023-03-11T22:06:13.577Z,24.83
2023-03-11T22:08:42.840Z,27.30
2023-03-11T22:11:18.646Z,26.65
2023-03-11T22:13:49.351Z,24.13
2023-03-11T22:16:18.395Z,27.15
2023-03-11T22:18:47.211Z,25.92
2023-03-11T22:21:16.740Z,27.05
2023-03-11T22:23:46.499Z,23.73
2023-03-11T22:26:17.092Z,29.35
2023-03-11T22:28:45.457Z,28.80
2023-03-11T22:31:15.946Z,28.73
2023-03-11T22:33:44.353Z,31.88
2023-03-11T22:36:13.332Z,22.52
2023-03-11T22:38:44.609Z,24.40
2023-03-11T22:41:14.720Z,26.48
2023-03-11T22:43:44.724Z,22.35
2023-03-11T22:46:13.030Z,22.35
2023-03-11T22:48:41.414Z,23.92
2023-03-11T22:51:10.069Z,21.60
2023-03-11T22:53:38.454Z,19.88
2023-03-11T22:56:09.555Z,17.83
2023-03-11T22:58:37.847Z,17.45
2023-03-11T23:01:08.044Z,18.85
2023-03-11T23:03:37.342Z,18.87
2023-03-11T23:06:08.626Z,19.23
2023-03-11T23:08:37.062Z,17.50
2023-03-11T23:11:06.770Z,20.67
2023-03-11T23:13:36.270Z,20.83
2023-03-11T23:16:08.371Z,15.53
2023-03-11T23:18:37.761Z,16.53
2023-03-11T23:21:06.556Z,13.27
2023-03-11T23:23:34.838Z,19.37
2023-03-11T23:26:09.313Z,16.00
2023-03-11T23:28:41.220Z,17.97
2023-03-11T23:31:11.924Z,13.73
2023-03-11T23:33:40.639Z,17.17
2023-03-11T23:36:10.971Z,15.50
2023-03-11T23:38:39.329Z,15.07
2023-03-11T23:41:08.324Z,17.47
2023-03-11T23:43:36.843Z,19.90
2023-03-11T23:46:05.707Z,14.13
2023-03-11T23:48:35.585Z,17.13
2023-03-11T23:51:04.731Z,17.37
2023-03-11T23:53:34.973Z,14.60
2023-03-11T23:56:03.375Z,14.97
2023-03-11T23:58:33.079Z,17.03
